DFEXE UHMO-UESK
Flight info
| Callsign | DFEXE |
|---|---|
| Flight time | 1h 58m |
| Altitude | 500 |
| Route | ANDYR |
| Aircraft | TBM9/L-VGDW/C |
Departure
| Time | 2026-04-22 18:46 |
|---|---|
| Airport | Markovo Airport (UHMO) |
Arrival
| Time | 2026-04-22 20:44 |
|---|---|
| Airport | Srednekolymsk Airport (UESK) |
| Time | Latitude | Longitude | Altitude | Speed | Heading |
|---|---|---|---|---|---|
| 2026-04-22 18:35 | 64.66780 | 170.41755 | 89 ft | 0 kts | 199° |
| 2026-04-22 18:41 | 64.66780 | 170.41754 | 89 ft | 1 kts | 199° |
| 2026-04-22 18:42 | 64.66760 | 170.41568 | 90 ft | 20 kts | 275° |
| 2026-04-22 18:42 | 64.66713 | 170.41386 | 87 ft | 11 kts | 261° |
| 2026-04-22 18:42 | 64.66709 | 170.41153 | 89 ft | 18 kts | 263° |
| 2026-04-22 18:42 | 64.66692 | 170.40846 | 93 ft | 18 kts | 266° |
| 2026-04-22 18:43 | 64.66686 | 170.40546 | 91 ft | 20 kts | 264° |
| 2026-04-22 18:43 | 64.66687 | 170.40196 | 92 ft | 23 kts | 266° |
| 2026-04-22 18:43 | 64.66643 | 170.39822 | 90 ft | 22 kts | 257° |
| 2026-04-22 18:43 | 64.66617 | 170.39592 | 86 ft | 10 kts | 140° |
| 2026-04-22 18:44 | 64.66612 | 170.39631 | 85 ft | 0 kts | 98° |
| 2026-04-22 18:45 | 64.66612 | 170.39632 | 85 ft | 2 kts | 97° |
| 2026-04-22 18:45 | 64.66603 | 170.40086 | 90 ft | 53 kts | 96° |
| 2026-04-22 18:45 | 64.66556 | 170.41318 | 84 ft | 100 kts | 91° |
| 2026-04-22 18:46 | 64.66527 | 170.43117 | 376 ft | 121 kts | 88° |
| 2026-04-22 18:46 | 64.66415 | 170.45269 | 596 ft | 148 kts | 97° |
| 2026-04-22 18:46 | 64.66206 | 170.47856 | 712 ft | 173 kts | 99° |
| 2026-04-22 18:46 | 64.65955 | 170.50726 | 872 ft | 186 kts | 98° |
| 2026-04-22 18:47 | 64.65702 | 170.53822 | 1046 ft | 200 kts | 98° |
| 2026-04-22 18:47 | 64.65421 | 170.57084 | 1228 ft | 208 kts | 98° |
| 2026-04-22 18:47 | 64.65135 | 170.60434 | 1398 ft | 213 kts | 98° |
| 2026-04-22 18:47 | 64.64855 | 170.63852 | 1570 ft | 216 kts | 98° |
| 2026-04-22 18:48 | 64.64583 | 170.67308 | 1741 ft | 218 kts | 98° |
| 2026-04-22 18:48 | 64.64315 | 170.70795 | 1914 ft | 218 kts | 98° |
| 2026-04-22 18:48 | 64.64049 | 170.74298 | 2084 ft | 219 kts | 98° |
| 2026-04-22 18:48 | 64.64012 | 170.77808 | 2225 ft | 217 kts | 76° |
| 2026-04-22 18:49 | 64.64768 | 170.80790 | 2359 ft | 218 kts | 44° |
| 2026-04-22 18:49 | 64.66129 | 170.82326 | 2494 ft | 223 kts | 13° |
| 2026-04-22 18:49 | 64.67678 | 170.81914 | 2630 ft | 230 kts | 342° |
| 2026-04-22 18:49 | 64.68942 | 170.79647 | 2762 ft | 239 kts | 311° |
| 2026-04-22 18:50 | 64.69586 | 170.76036 | 2901 ft | 246 kts | 283° |
| 2026-04-22 18:50 | 64.69763 | 170.72060 | 3065 ft | 246 kts | 277° |
| 2026-04-22 18:50 | 64.69899 | 170.68086 | 3234 ft | 244 kts | 277° |
| 2026-04-22 18:50 | 64.70030 | 170.64135 | 3394 ft | 243 kts | 277° |
| 2026-04-22 18:51 | 64.70181 | 170.60205 | 3570 ft | 242 kts | 281° |
| 2026-04-22 18:51 | 64.70511 | 170.56352 | 3739 ft | 241 kts | 285° |
| 2026-04-22 18:51 | 64.70876 | 170.52527 | 3905 ft | 241 kts | 285° |
| 2026-04-22 18:51 | 64.71269 | 170.48756 | 4072 ft | 242 kts | 287° |
| 2026-04-22 18:52 | 64.71692 | 170.44943 | 4248 ft | 243 kts | 287° |
| 2026-04-22 18:52 | 64.72115 | 170.41109 | 4406 ft | 243 kts | 287° |
| 2026-04-22 18:52 | 64.72539 | 170.37283 | 4576 ft | 243 kts | 287° |
| 2026-04-22 18:52 | 64.72960 | 170.33446 | 4744 ft | 244 kts | 287° |
| 2026-04-22 18:53 | 64.73243 | 170.30851 | 4856 ft | 244 kts | 287° |
| 2026-04-22 18:53 | 64.73672 | 170.27015 | 5028 ft | 244 kts | 289° |
| 2026-04-22 18:53 | 64.74274 | 170.23379 | 5201 ft | 242 kts | 298° |
| 2026-04-22 18:53 | 64.74996 | 170.19812 | 5366 ft | 242 kts | 299° |
| 2026-04-22 18:54 | 64.75722 | 170.16236 | 5534 ft | 243 kts | 299° |
| 2026-04-22 18:54 | 64.76450 | 170.12654 | 5696 ft | 244 kts | 299° |
| 2026-04-22 18:54 | 64.77169 | 170.09065 | 5899 ft | 243 kts | 299° |
| 2026-04-22 18:54 | 64.77882 | 170.05483 | 6122 ft | 242 kts | 299° |
| 2026-04-22 18:55 | 64.78588 | 170.01907 | 6341 ft | 241 kts | 299° |
| 2026-04-22 18:55 | 64.79288 | 169.98328 | 6567 ft | 241 kts | 299° |
| 2026-04-22 18:55 | 64.79985 | 169.94740 | 6784 ft | 242 kts | 299° |
| 2026-04-22 18:55 | 64.80680 | 169.91146 | 6992 ft | 242 kts | 299° |
| 2026-04-22 18:56 | 64.81376 | 169.87543 | 7204 ft | 243 kts | 299° |
| 2026-04-22 18:56 | 64.81996 | 169.83843 | 7405 ft | 247 kts | 286° |
| 2026-04-22 18:56 | 64.81908 | 169.79845 | 7579 ft | 255 kts | 255° |
| 2026-04-22 18:56 | 64.81148 | 169.76071 | 7784 ft | 257 kts | 243° |
| 2026-04-22 18:57 | 64.80269 | 169.72415 | 7999 ft | 257 kts | 242° |
| 2026-04-22 18:57 | 64.79377 | 169.68765 | 8217 ft | 257 kts | 242° |
| 2026-04-22 18:57 | 64.78481 | 169.65131 | 8436 ft | 258 kts | 242° |
| 2026-04-22 18:57 | 64.77580 | 169.61492 | 8656 ft | 258 kts | 242° |
| 2026-04-22 18:58 | 64.76677 | 169.57856 | 8881 ft | 258 kts | 242° |
| 2026-04-22 18:58 | 64.75771 | 169.54215 | 9104 ft | 259 kts | 242° |
| 2026-04-22 18:58 | 64.74861 | 169.50565 | 9329 ft | 259 kts | 242° |
| 2026-04-22 18:58 | 64.73961 | 169.46950 | 9544 ft | 260 kts | 242° |
| 2026-04-22 18:59 | 64.73047 | 169.43292 | 9781 ft | 260 kts | 242° |
| 2026-04-22 18:59 | 64.72141 | 169.39614 | 9999 ft | 260 kts | 246° |
| 2026-04-22 18:59 | 64.71788 | 169.35569 | 10241 ft | 252 kts | 279° |
| 2026-04-22 18:59 | 64.72309 | 169.31759 | 10465 ft | 245 kts | 301° |
| 2026-04-22 19:00 | 64.73108 | 169.28236 | 10675 ft | 245 kts | 304° |
| 2026-04-22 19:00 | 64.73940 | 169.24767 | 10899 ft | 244 kts | 307° |
| 2026-04-22 19:00 | 64.74941 | 169.21583 | 11113 ft | 242 kts | 315° |
| 2026-04-22 19:00 | 64.76021 | 169.18541 | 11326 ft | 242 kts | 315° |
| 2026-04-22 19:01 | 64.77109 | 169.15514 | 11542 ft | 243 kts | 315° |
| 2026-04-22 19:01 | 64.78339 | 169.12852 | 11769 ft | 238 kts | 331° |
| 2026-04-22 19:01 | 64.79752 | 169.10843 | 11988 ft | 238 kts | 335° |
| 2026-04-22 19:01 | 64.81172 | 169.08941 | 12206 ft | 238 kts | 335° |
| 2026-04-22 19:02 | 64.82622 | 169.07022 | 12424 ft | 239 kts | 336° |
| 2026-04-22 19:02 | 64.84075 | 169.05105 | 12648 ft | 240 kts | 335° |
| 2026-04-22 19:02 | 64.85528 | 169.03152 | 12869 ft | 241 kts | 335° |
| 2026-04-22 19:02 | 64.86985 | 169.01206 | 13095 ft | 241 kts | 335° |
| 2026-04-22 19:03 | 64.88447 | 168.99280 | 13323 ft | 241 kts | 336° |
| 2026-04-22 19:03 | 64.89909 | 168.97321 | 13544 ft | 241 kts | 335° |
| 2026-04-22 19:03 | 64.91367 | 168.95362 | 13772 ft | 242 kts | 335° |
| 2026-04-22 19:03 | 64.92806 | 168.93383 | 13997 ft | 243 kts | 333° |
| 2026-04-22 19:04 | 64.94196 | 168.91072 | 14206 ft | 246 kts | 328° |
| 2026-04-22 19:04 | 64.95559 | 168.88636 | 14411 ft | 246 kts | 329° |
| 2026-04-22 19:04 | 64.96944 | 168.86254 | 14617 ft | 246 kts | 329° |
| 2026-04-22 19:04 | 64.98335 | 168.83876 | 14822 ft | 247 kts | 329° |
| 2026-04-22 19:05 | 64.99742 | 168.81524 | 15029 ft | 247 kts | 330° |
| 2026-04-22 19:05 | 65.01169 | 168.79257 | 15238 ft | 248 kts | 331° |
| 2026-04-22 19:05 | 65.02607 | 168.76988 | 15451 ft | 248 kts | 331° |
| 2026-04-22 19:05 | 65.04048 | 168.74716 | 15660 ft | 249 kts | 331° |
| 2026-04-22 19:06 | 65.05501 | 168.72592 | 15874 ft | 248 kts | 334° |
| 2026-04-22 19:06 | 65.06998 | 168.70557 | 16095 ft | 248 kts | 335° |
| 2026-04-22 19:06 | 65.08510 | 168.68527 | 16313 ft | 249 kts | 336° |
| 2026-04-22 19:07 | 65.11600 | 168.64808 | 16754 ft | 249 kts | 339° |
| 2026-04-22 19:07 | 65.13175 | 168.63089 | 16976 ft | 249 kts | 340° |
| 2026-04-22 19:07 | 65.14759 | 168.61392 | 17195 ft | 250 kts | 340° |
| 2026-04-22 19:07 | 65.16343 | 168.59693 | 17420 ft | 250 kts | 340° |
| 2026-04-22 19:08 | 65.17937 | 168.57987 | 17641 ft | 251 kts | 340° |
| 2026-04-22 19:08 | 65.19528 | 168.56275 | 17858 ft | 252 kts | 340° |
| 2026-04-22 19:08 | 65.21123 | 168.54545 | 18086 ft | 252 kts | 340° |
| 2026-04-22 19:08 | 65.22702 | 168.52822 | 18314 ft | 252 kts | 340° |
| 2026-04-22 19:09 | 65.24300 | 168.51078 | 18540 ft | 253 kts | 340° |
| 2026-04-22 19:09 | 65.25903 | 168.49328 | 18748 ft | 253 kts | 340° |
| 2026-04-22 19:09 | 65.27508 | 168.47575 | 18947 ft | 253 kts | 340° |
| 2026-04-22 19:09 | 65.28938 | 168.45058 | 19117 ft | 263 kts | 314° |
| 2026-04-22 19:10 | 65.29738 | 168.41074 | 19291 ft | 273 kts | 286° |
| 2026-04-22 19:10 | 65.29687 | 168.36515 | 19463 ft | 280 kts | 258° |
| 2026-04-22 19:10 | 65.28809 | 168.32347 | 19640 ft | 284 kts | 236° |
| 2026-04-22 19:10 | 65.27596 | 168.28621 | 19840 ft | 284 kts | 233° |
| 2026-04-22 19:11 | 65.26348 | 168.24954 | 20046 ft | 284 kts | 233° |
| 2026-04-22 19:11 | 65.25110 | 168.21297 | 20282 ft | 283 kts | 233° |
| 2026-04-22 19:11 | 65.23876 | 168.17635 | 20519 ft | 283 kts | 234° |
| 2026-04-22 19:11 | 65.22675 | 168.13916 | 20758 ft | 282 kts | 234° |
| 2026-04-22 19:12 | 65.21500 | 168.10225 | 20995 ft | 282 kts | 234° |
| 2026-04-22 19:12 | 65.20316 | 168.06499 | 21237 ft | 282 kts | 234° |
| 2026-04-22 19:12 | 65.19131 | 168.02763 | 21481 ft | 282 kts | 235° |
| 2026-04-22 19:12 | 65.18017 | 167.98912 | 21734 ft | 282 kts | 239° |
| 2026-04-22 19:13 | 65.16952 | 167.94977 | 21982 ft | 282 kts | 239° |
| 2026-04-22 19:13 | 65.15899 | 167.91037 | 22232 ft | 283 kts | 239° |
| 2026-04-22 19:13 | 65.14856 | 167.87076 | 22485 ft | 283 kts | 240° |
| 2026-04-22 19:13 | 65.13826 | 167.83084 | 22740 ft | 283 kts | 240° |
| 2026-04-22 19:14 | 65.12797 | 167.79091 | 23001 ft | 284 kts | 240° |
| 2026-04-22 19:14 | 65.11768 | 167.75086 | 23260 ft | 284 kts | 240° |
| 2026-04-22 19:14 | 65.10751 | 167.71073 | 23531 ft | 284 kts | 242° |
| 2026-04-22 19:14 | 65.09810 | 167.66959 | 23798 ft | 283 kts | 244° |
| 2026-04-22 19:15 | 65.09202 | 167.64223 | 23954 ft | 284 kts | 244° |
| 2026-04-22 19:15 | 65.07977 | 167.58673 | 24239 ft | 284 kts | 244° |
| 2026-04-22 19:15 | 65.07060 | 167.54523 | 24446 ft | 285 kts | 245° |
| 2026-04-22 19:15 | 65.06142 | 167.50418 | 24661 ft | 285 kts | 244° |
| 2026-04-22 19:16 | 65.05211 | 167.46255 | 24879 ft | 286 kts | 244° |
| 2026-04-22 19:16 | 65.04281 | 167.42099 | 25097 ft | 286 kts | 244° |
| 2026-04-22 19:16 | 65.03348 | 167.37928 | 25318 ft | 286 kts | 244° |
| 2026-04-22 19:16 | 65.02418 | 167.33765 | 25543 ft | 287 kts | 244° |
| 2026-04-22 19:17 | 65.01484 | 167.29580 | 25770 ft | 287 kts | 244° |
| 2026-04-22 19:17 | 65.00590 | 167.25359 | 26000 ft | 287 kts | 248° |
| 2026-04-22 19:17 | 64.99820 | 167.21009 | 26233 ft | 286 kts | 252° |
| 2026-04-22 19:17 | 64.99199 | 167.16535 | 26469 ft | 286 kts | 256° |
| 2026-04-22 19:18 | 64.98635 | 167.12094 | 26699 ft | 286 kts | 256° |
| 2026-04-22 19:18 | 64.98089 | 167.07574 | 26936 ft | 286 kts | 260° |
| 2026-04-22 19:18 | 64.97843 | 167.02944 | 27186 ft | 283 kts | 271° |
| 2026-04-22 19:18 | 64.97823 | 166.98301 | 27427 ft | 283 kts | 274° |
| 2026-04-22 19:19 | 64.97848 | 166.93654 | 27668 ft | 283 kts | 274° |
| 2026-04-22 19:19 | 64.97881 | 166.88999 | 27910 ft | 284 kts | 274° |
| 2026-04-22 19:19 | 64.97917 | 166.84337 | 28155 ft | 284 kts | 274° |
| 2026-04-22 19:19 | 64.97957 | 166.79652 | 28309 ft | 288 kts | 274° |
| 2026-04-22 19:20 | 64.97993 | 166.74854 | 28310 ft | 296 kts | 275° |
| 2026-04-22 19:20 | 64.98038 | 166.64931 | 28320 ft | 307 kts | 274° |
| 2026-04-22 19:21 | 64.98083 | 166.54705 | 28326 ft | 314 kts | 274° |
| 2026-04-22 19:21 | 64.98133 | 166.44293 | 28326 ft | 319 kts | 274° |
| 2026-04-22 19:22 | 64.98186 | 166.33778 | 28321 ft | 321 kts | 274° |
| 2026-04-22 19:22 | 64.98229 | 166.23238 | 28308 ft | 323 kts | 275° |
| 2026-04-22 19:23 | 64.98234 | 166.12591 | 28314 ft | 324 kts | 274° |
| 2026-04-22 19:23 | 64.98227 | 166.01929 | 28303 ft | 325 kts | 274° |
| 2026-04-22 19:24 | 64.98211 | 165.91258 | 28302 ft | 324 kts | 275° |
| 2026-04-22 19:24 | 64.98143 | 165.80597 | 28298 ft | 325 kts | 274° |
| 2026-04-22 19:25 | 64.98061 | 165.69926 | 28299 ft | 325 kts | 274° |
| 2026-04-22 19:25 | 64.97974 | 165.59324 | 28301 ft | 325 kts | 274° |
| 2026-04-22 19:26 | 64.98081 | 165.48711 | 28316 ft | 319 kts | 286° |
| 2026-04-22 19:26 | 64.99225 | 165.38658 | 28322 ft | 316 kts | 292° |
| 2026-04-22 19:27 | 65.00525 | 165.28700 | 28321 ft | 316 kts | 292° |
| 2026-04-22 19:27 | 65.01829 | 165.18767 | 28326 ft | 316 kts | 292° |
| 2026-04-22 19:28 | 65.03122 | 165.08889 | 28319 ft | 317 kts | 292° |
| 2026-04-22 19:28 | 65.04403 | 164.98906 | 28309 ft | 316 kts | 293° |
| 2026-04-22 19:29 | 65.05640 | 164.88880 | 28310 ft | 317 kts | 292° |
| 2026-04-22 19:29 | 65.06869 | 164.78855 | 28311 ft | 317 kts | 292° |
| 2026-04-22 19:30 | 65.07901 | 164.70521 | 28314 ft | 316 kts | 295° |
| 2026-04-22 19:30 | 65.09830 | 164.59394 | 28321 ft | 312 kts | 300° |
| 2026-04-22 19:31 | 65.11592 | 164.49960 | 28321 ft | 312 kts | 300° |
| 2026-04-22 19:31 | 65.13348 | 164.40532 | 28313 ft | 312 kts | 301° |
| 2026-04-22 19:32 | 65.14994 | 164.30954 | 28312 ft | 314 kts | 298° |
| 2026-04-22 19:32 | 65.16737 | 164.21493 | 28328 ft | 311 kts | 303° |
| 2026-04-22 19:33 | 65.18632 | 164.12245 | 28328 ft | 311 kts | 303° |
| 2026-04-22 19:33 | 65.20538 | 164.02989 | 28323 ft | 311 kts | 303° |
| 2026-04-22 19:34 | 65.22428 | 163.93785 | 28320 ft | 311 kts | 303° |
| 2026-04-22 19:34 | 65.24324 | 163.84518 | 28317 ft | 310 kts | 303° |
| 2026-04-22 19:35 | 65.26215 | 163.75249 | 28330 ft | 310 kts | 303° |
| 2026-04-22 19:35 | 65.27813 | 163.67604 | 28329 ft | 310 kts | 303° |
| 2026-04-22 19:36 | 65.29957 | 163.56689 | 28335 ft | 310 kts | 302° |
| 2026-04-22 19:36 | 65.31761 | 163.47352 | 28333 ft | 311 kts | 302° |
| 2026-04-22 19:37 | 65.33578 | 163.37931 | 28332 ft | 311 kts | 302° |
| 2026-04-22 19:37 | 65.35364 | 163.28491 | 28343 ft | 311 kts | 302° |
| 2026-04-22 19:38 | 65.37137 | 163.19020 | 28343 ft | 311 kts | 302° |
| 2026-04-22 19:38 | 65.39052 | 163.09742 | 28334 ft | 309 kts | 305° |
| 2026-04-22 19:39 | 65.40961 | 163.00517 | 28335 ft | 308 kts | 305° |
| 2026-04-22 19:39 | 65.42833 | 162.91241 | 28333 ft | 308 kts | 304° |
| 2026-04-22 19:40 | 65.44683 | 162.82041 | 28329 ft | 307 kts | 304° |
| 2026-04-22 19:40 | 65.46530 | 162.72785 | 28331 ft | 307 kts | 304° |
| 2026-04-22 19:41 | 65.48376 | 162.63518 | 28315 ft | 307 kts | 304° |
| 2026-04-22 19:41 | 65.50243 | 162.54262 | 28324 ft | 306 kts | 306° |
| 2026-04-22 19:42 | 65.51910 | 162.46672 | 28325 ft | 305 kts | 308° |
| 2026-04-22 19:42 | 65.54023 | 162.37911 | 28326 ft | 304 kts | 309° |
| 2026-04-22 19:43 | 65.57221 | 162.24698 | 28319 ft | 304 kts | 309° |
| 2026-04-22 19:43 | 65.59326 | 162.15830 | 28322 ft | 304 kts | 309° |
| 2026-04-22 19:44 | 65.61148 | 162.08133 | 28323 ft | 304 kts | 309° |
| 2026-04-22 19:44 | 65.63244 | 161.99251 | 28275 ft | 304 kts | 309° |
| 2026-04-22 19:45 | 65.65283 | 161.90351 | 28325 ft | 302 kts | 309° |
| 2026-04-22 19:45 | 65.67269 | 161.81466 | 28323 ft | 301 kts | 309° |
| 2026-04-22 19:46 | 65.69257 | 161.72527 | 28322 ft | 301 kts | 309° |
| 2026-04-22 19:46 | 65.71249 | 161.63545 | 28317 ft | 301 kts | 309° |
| 2026-04-22 19:47 | 65.73228 | 161.54584 | 28317 ft | 301 kts | 309° |
| 2026-04-22 19:47 | 65.75191 | 161.45672 | 28315 ft | 300 kts | 309° |
| 2026-04-22 19:48 | 65.76174 | 161.41194 | 28316 ft | 300 kts | 309° |
| 2026-04-22 19:48 | 65.77151 | 161.36714 | 28328 ft | 299 kts | 309° |
| 2026-04-22 19:48 | 65.78110 | 161.32217 | 28312 ft | 299 kts | 309° |
| 2026-04-22 19:48 | 65.79063 | 161.27703 | 28314 ft | 299 kts | 309° |
| 2026-04-22 19:49 | 65.80009 | 161.23203 | 28309 ft | 299 kts | 309° |
| 2026-04-22 19:49 | 65.80955 | 161.18693 | 28316 ft | 299 kts | 308° |
| 2026-04-22 19:49 | 65.81904 | 161.14164 | 28312 ft | 299 kts | 308° |
| 2026-04-22 19:49 | 65.82853 | 161.09636 | 28310 ft | 300 kts | 308° |
| 2026-04-22 19:50 | 65.83800 | 161.05102 | 28313 ft | 299 kts | 308° |
| 2026-04-22 19:50 | 65.84746 | 161.00571 | 28313 ft | 300 kts | 308° |
| 2026-04-22 19:50 | 65.85693 | 160.96035 | 28322 ft | 300 kts | 308° |
| 2026-04-22 19:50 | 65.86628 | 160.91549 | 28325 ft | 300 kts | 308° |
| 2026-04-22 19:51 | 65.87571 | 160.87013 | 28285 ft | 298 kts | 309° |
| 2026-04-22 19:51 | 65.88484 | 160.82480 | 28313 ft | 297 kts | 309° |
| 2026-04-22 19:51 | 65.89373 | 160.77912 | 28313 ft | 297 kts | 308° |
| 2026-04-22 19:51 | 65.90247 | 160.73357 | 28312 ft | 296 kts | 308° |
| 2026-04-22 19:52 | 65.91122 | 160.68789 | 28312 ft | 296 kts | 308° |
| 2026-04-22 19:52 | 65.91995 | 160.64221 | 28312 ft | 296 kts | 308° |
| 2026-04-22 19:52 | 65.92869 | 160.59649 | 28308 ft | 296 kts | 308° |
| 2026-04-22 19:52 | 65.93743 | 160.55071 | 28317 ft | 296 kts | 308° |
| 2026-04-22 19:53 | 65.94627 | 160.50548 | 28325 ft | 292 kts | 310° |
| 2026-04-22 19:53 | 65.95570 | 160.46168 | 28329 ft | 289 kts | 312° |
| 2026-04-22 19:53 | 65.96561 | 160.41879 | 28325 ft | 287 kts | 313° |
| 2026-04-22 19:53 | 65.97541 | 160.37685 | 28307 ft | 287 kts | 314° |
| 2026-04-22 19:54 | 65.98520 | 160.33423 | 28316 ft | 287 kts | 313° |
| 2026-04-22 19:54 | 65.99492 | 160.29139 | 28316 ft | 287 kts | 313° |
| 2026-04-22 19:54 | 66.00461 | 160.24853 | 28314 ft | 287 kts | 313° |
| 2026-04-22 19:54 | 66.01444 | 160.20592 | 28320 ft | 284 kts | 315° |
| 2026-04-22 19:55 | 66.02491 | 160.16491 | 28319 ft | 282 kts | 317° |
| 2026-04-22 19:55 | 66.03590 | 160.12527 | 28323 ft | 280 kts | 319° |
| 2026-04-22 19:55 | 66.04712 | 160.08600 | 28323 ft | 280 kts | 319° |
| 2026-04-22 19:55 | 66.05841 | 160.04682 | 28323 ft | 281 kts | 319° |
| 2026-04-22 19:56 | 66.06974 | 160.00754 | 28324 ft | 281 kts | 319° |
| 2026-04-22 19:56 | 66.08106 | 159.96831 | 28323 ft | 281 kts | 319° |
| 2026-04-22 19:56 | 66.09221 | 159.92957 | 28313 ft | 281 kts | 319° |
| 2026-04-22 19:56 | 66.10353 | 159.89023 | 28316 ft | 281 kts | 319° |
| 2026-04-22 19:57 | 66.11488 | 159.85083 | 28324 ft | 282 kts | 319° |
| 2026-04-22 19:57 | 66.12623 | 159.81134 | 28322 ft | 282 kts | 319° |
| 2026-04-22 19:57 | 66.13757 | 159.77185 | 28322 ft | 282 kts | 319° |
| 2026-04-22 19:57 | 66.14891 | 159.73225 | 28321 ft | 282 kts | 319° |
| 2026-04-22 19:58 | 66.16024 | 159.69267 | 28261 ft | 281 kts | 319° |
| 2026-04-22 19:58 | 66.17140 | 159.65330 | 28324 ft | 279 kts | 319° |
| 2026-04-22 19:58 | 66.18245 | 159.61385 | 28321 ft | 279 kts | 319° |
| 2026-04-22 19:58 | 66.19343 | 159.57441 | 28319 ft | 278 kts | 319° |
| 2026-04-22 19:59 | 66.20435 | 159.53505 | 28328 ft | 276 kts | 319° |
| 2026-04-22 20:00 | 66.26979 | 159.29858 | 28329 ft | 278 kts | 319° |
| 2026-04-22 20:00 | 66.28073 | 159.25887 | 28327 ft | 278 kts | 319° |
| 2026-04-22 20:01 | 66.29162 | 159.21926 | 28332 ft | 278 kts | 319° |
| 2026-04-22 20:01 | 66.30254 | 159.17955 | 28332 ft | 278 kts | 319° |
| 2026-04-22 20:01 | 66.31344 | 159.13991 | 28331 ft | 278 kts | 319° |
| 2026-04-22 20:01 | 66.32439 | 159.10010 | 28332 ft | 278 kts | 319° |
| 2026-04-22 20:02 | 66.33535 | 159.06025 | 28330 ft | 278 kts | 319° |
| 2026-04-22 20:02 | 66.34627 | 159.02047 | 28327 ft | 279 kts | 319° |
| 2026-04-22 20:02 | 66.35706 | 158.98105 | 28329 ft | 279 kts | 319° |
| 2026-04-22 20:02 | 66.36799 | 158.94116 | 28330 ft | 278 kts | 319° |
| 2026-04-22 20:03 | 66.37888 | 158.90129 | 28332 ft | 278 kts | 319° |
| 2026-04-22 20:03 | 66.38979 | 158.86127 | 28338 ft | 279 kts | 319° |
| 2026-04-22 20:03 | 66.40069 | 158.82129 | 28340 ft | 278 kts | 318° |
| 2026-04-22 20:03 | 66.41155 | 158.78136 | 28338 ft | 278 kts | 318° |
| 2026-04-22 20:04 | 66.42239 | 158.74140 | 28338 ft | 278 kts | 318° |
| 2026-04-22 20:04 | 66.43300 | 158.70082 | 28336 ft | 281 kts | 315° |
| 2026-04-22 20:04 | 66.44186 | 158.65636 | 28337 ft | 290 kts | 309° |
| 2026-04-22 20:04 | 66.44990 | 158.60993 | 28338 ft | 292 kts | 308° |
| 2026-04-22 20:05 | 66.45759 | 158.56367 | 28337 ft | 292 kts | 307° |
| 2026-04-22 20:05 | 66.46535 | 158.51661 | 28343 ft | 293 kts | 307° |
| 2026-04-22 20:05 | 66.47311 | 158.46948 | 28341 ft | 293 kts | 307° |
| 2026-04-22 20:05 | 66.48084 | 158.42228 | 28295 ft | 293 kts | 306° |
| 2026-04-22 20:06 | 66.48631 | 158.37205 | 28334 ft | 309 kts | 294° |
| 2026-04-22 20:06 | 66.48721 | 158.31679 | 28337 ft | 327 kts | 280° |
| 2026-04-22 20:06 | 66.48361 | 158.25934 | 28335 ft | 340 kts | 271° |
| 2026-04-22 20:07 | 66.47286 | 158.14368 | 28348 ft | 341 kts | 270° |
| 2026-04-22 20:07 | 66.46195 | 158.02806 | 28337 ft | 341 kts | 270° |
| 2026-04-22 20:08 | 66.45105 | 157.91346 | 28334 ft | 341 kts | 270° |
| 2026-04-22 20:08 | 66.44002 | 157.79819 | 28338 ft | 341 kts | 270° |
| 2026-04-22 20:09 | 66.42899 | 157.68278 | 28340 ft | 339 kts | 271° |
| 2026-04-22 20:09 | 66.42653 | 157.62582 | 28346 ft | 320 kts | 285° |
| 2026-04-22 20:09 | 66.42950 | 157.57265 | 28354 ft | 301 kts | 300° |
| 2026-04-22 20:09 | 66.43733 | 157.52615 | 28295 ft | 282 kts | 313° |
| 2026-04-22 20:10 | 66.44782 | 157.48576 | 28342 ft | 275 kts | 318° |
| 2026-04-22 20:10 | 66.45894 | 157.44772 | 28354 ft | 274 kts | 319° |
| 2026-04-22 20:10 | 66.47043 | 157.40960 | 28354 ft | 275 kts | 320° |
| 2026-04-22 20:10 | 66.48265 | 157.37342 | 28355 ft | 269 kts | 325° |
| 2026-04-22 20:11 | 66.49606 | 157.34123 | 28356 ft | 266 kts | 329° |
| 2026-04-22 20:11 | 66.51011 | 157.31163 | 28354 ft | 262 kts | 333° |
| 2026-04-22 20:11 | 66.52470 | 157.28447 | 28353 ft | 261 kts | 334° |
| 2026-04-22 20:11 | 66.53946 | 157.25797 | 28355 ft | 260 kts | 334° |
| 2026-04-22 20:12 | 66.55424 | 157.23159 | 28344 ft | 260 kts | 334° |
| 2026-04-22 20:12 | 66.56907 | 157.20536 | 28237 ft | 263 kts | 334° |
| 2026-04-22 20:12 | 66.57905 | 157.18803 | 28089 ft | 262 kts | 334° |
| 2026-04-22 20:12 | 66.59911 | 157.15333 | 27801 ft | 261 kts | 335° |
| 2026-04-22 20:13 | 66.61398 | 157.12743 | 27579 ft | 258 kts | 335° |
| 2026-04-22 20:13 | 66.62862 | 157.10170 | 27362 ft | 255 kts | 334° |
| 2026-04-22 20:13 | 66.64310 | 157.07609 | 27147 ft | 254 kts | 334° |
| 2026-04-22 20:13 | 66.65748 | 157.05057 | 26956 ft | 251 kts | 334° |
| 2026-04-22 20:14 | 66.67169 | 157.02520 | 26769 ft | 249 kts | 334° |
| 2026-04-22 20:14 | 66.68583 | 156.99986 | 26586 ft | 248 kts | 334° |
| 2026-04-22 20:14 | 66.69987 | 156.97464 | 26405 ft | 247 kts | 334° |
| 2026-04-22 20:14 | 66.71366 | 156.94978 | 26224 ft | 246 kts | 334° |
| 2026-04-22 20:15 | 66.72759 | 156.92463 | 26041 ft | 246 kts | 334° |
| 2026-04-22 20:15 | 66.74167 | 156.89917 | 25849 ft | 246 kts | 334° |
| 2026-04-22 20:15 | 66.75539 | 156.87434 | 25649 ft | 246 kts | 334° |
| 2026-04-22 20:15 | 66.76931 | 156.84910 | 25448 ft | 246 kts | 334° |
| 2026-04-22 20:16 | 66.78321 | 156.82386 | 25253 ft | 247 kts | 334° |
| 2026-04-22 20:16 | 66.79723 | 156.79845 | 25056 ft | 248 kts | 334° |
| 2026-04-22 20:16 | 66.81132 | 156.77296 | 24858 ft | 249 kts | 334° |
| 2026-04-22 20:16 | 66.82540 | 156.74743 | 24666 ft | 249 kts | 334° |
| 2026-04-22 20:17 | 66.83954 | 156.72178 | 24473 ft | 249 kts | 334° |
| 2026-04-22 20:17 | 66.85324 | 156.69447 | 24267 ft | 256 kts | 327° |
| 2026-04-22 20:17 | 66.86406 | 156.65753 | 24062 ft | 270 kts | 313° |
| 2026-04-22 20:17 | 66.87305 | 156.61526 | 23858 ft | 273 kts | 310° |
| 2026-04-22 20:18 | 66.88159 | 156.57205 | 23635 ft | 273 kts | 309° |
| 2026-04-22 20:18 | 66.89002 | 156.52879 | 23406 ft | 272 kts | 309° |
| 2026-04-22 20:18 | 66.89881 | 156.48657 | 23183 ft | 268 kts | 311° |
| 2026-04-22 20:18 | 66.90793 | 156.44506 | 22953 ft | 267 kts | 312° |
| 2026-04-22 20:19 | 66.91710 | 156.40388 | 22737 ft | 267 kts | 312° |
| 2026-04-22 20:19 | 66.92629 | 156.36287 | 22509 ft | 266 kts | 312° |
| 2026-04-22 20:19 | 66.93555 | 156.32208 | 22290 ft | 265 kts | 313° |
| 2026-04-22 20:19 | 66.94439 | 156.28046 | 22067 ft | 268 kts | 309° |
| 2026-04-22 20:20 | 66.95284 | 156.23808 | 21851 ft | 268 kts | 309° |
| 2026-04-22 20:20 | 66.96130 | 156.19572 | 21635 ft | 268 kts | 309° |
| 2026-04-22 20:20 | 66.96977 | 156.15341 | 21422 ft | 267 kts | 309° |
| 2026-04-22 20:20 | 66.97825 | 156.11120 | 21208 ft | 267 kts | 309° |
| 2026-04-22 20:21 | 66.98662 | 156.06971 | 21002 ft | 266 kts | 309° |
| 2026-04-22 20:21 | 66.99515 | 156.02757 | 20792 ft | 265 kts | 309° |
| 2026-04-22 20:21 | 67.00364 | 155.98574 | 20583 ft | 265 kts | 309° |
| 2026-04-22 20:21 | 67.01214 | 155.94408 | 20368 ft | 264 kts | 309° |
| 2026-04-22 20:22 | 67.02119 | 155.90362 | 20179 ft | 258 kts | 314° |
| 2026-04-22 20:22 | 67.03167 | 155.86674 | 19983 ft | 254 kts | 320° |
| 2026-04-22 20:22 | 67.04342 | 155.83344 | 19716 ft | 250 kts | 323° |
| 2026-04-22 20:22 | 67.05551 | 155.80139 | 19511 ft | 249 kts | 324° |
| 2026-04-22 20:23 | 67.06745 | 155.77013 | 19322 ft | 249 kts | 324° |
| 2026-04-22 20:23 | 67.07958 | 155.73851 | 19123 ft | 249 kts | 324° |
| 2026-04-22 20:23 | 67.09172 | 155.70688 | 18927 ft | 248 kts | 324° |
| 2026-04-22 20:23 | 67.10380 | 155.67537 | 18734 ft | 248 kts | 324° |
| 2026-04-22 20:24 | 67.11592 | 155.64380 | 18522 ft | 248 kts | 324° |
| 2026-04-22 20:24 | 67.12805 | 155.61231 | 18294 ft | 248 kts | 324° |
| 2026-04-22 20:24 | 67.14021 | 155.58079 | 18076 ft | 247 kts | 324° |
| 2026-04-22 20:24 | 67.15232 | 155.54950 | 17852 ft | 247 kts | 324° |
| 2026-04-22 20:25 | 67.16444 | 155.51830 | 17631 ft | 246 kts | 324° |
| 2026-04-22 20:25 | 67.17661 | 155.48712 | 17411 ft | 246 kts | 324° |
| 2026-04-22 20:25 | 67.18880 | 155.45600 | 17191 ft | 246 kts | 324° |
| 2026-04-22 20:25 | 67.20093 | 155.42482 | 16969 ft | 248 kts | 321° |
| 2026-04-22 20:26 | 67.21064 | 155.38769 | 16737 ft | 258 kts | 306° |
| 2026-04-22 20:26 | 67.21803 | 155.34480 | 16519 ft | 262 kts | 302° |
| 2026-04-22 20:26 | 67.22481 | 155.30099 | 16305 ft | 264 kts | 299° |
| 2026-04-22 20:26 | 67.23000 | 155.25502 | 16091 ft | 270 kts | 291° |
| 2026-04-22 20:27 | 67.23337 | 155.20722 | 15880 ft | 271 kts | 288° |
| 2026-04-22 20:27 | 67.23628 | 155.16001 | 15670 ft | 261 kts | 288° |
| 2026-04-22 20:27 | 67.23836 | 155.11396 | 15453 ft | 256 kts | 284° |
| 2026-04-22 20:27 | 67.23979 | 155.06853 | 15243 ft | 252 kts | 283° |
| 2026-04-22 20:28 | 67.24115 | 155.02370 | 15033 ft | 249 kts | 283° |
| 2026-04-22 20:28 | 67.24255 | 154.97932 | 14830 ft | 247 kts | 283° |
| 2026-04-22 20:28 | 67.24399 | 154.93580 | 14606 ft | 246 kts | 283° |
| 2026-04-22 20:28 | 67.24553 | 154.89196 | 14408 ft | 245 kts | 283° |
| 2026-04-22 20:29 | 67.24713 | 154.84824 | 14208 ft | 244 kts | 283° |
| 2026-04-22 20:29 | 67.24877 | 154.80465 | 13987 ft | 243 kts | 283° |
| 2026-04-22 20:29 | 67.25044 | 154.76130 | 13763 ft | 242 kts | 283° |
| 2026-04-22 20:29 | 67.25214 | 154.71801 | 13537 ft | 241 kts | 283° |
| 2026-04-22 20:30 | 67.25385 | 154.67481 | 13316 ft | 241 kts | 283° |
| 2026-04-22 20:30 | 67.25558 | 154.63186 | 13096 ft | 241 kts | 283° |
| 2026-04-22 20:30 | 67.25734 | 154.58888 | 12872 ft | 241 kts | 283° |
| 2026-04-22 20:30 | 67.25914 | 154.54603 | 12609 ft | 238 kts | 283° |
| 2026-04-22 20:31 | 67.26090 | 154.50379 | 12365 ft | 235 kts | 283° |
| 2026-04-22 20:31 | 67.26269 | 154.46190 | 12124 ft | 234 kts | 283° |
| 2026-04-22 20:31 | 67.26388 | 154.43432 | 11965 ft | 233 kts | 283° |
| 2026-04-22 20:31 | 67.26571 | 154.39286 | 11728 ft | 231 kts | 283° |
| 2026-04-22 20:32 | 67.26756 | 154.35160 | 11494 ft | 231 kts | 283° |
| 2026-04-22 20:32 | 67.26944 | 154.31046 | 11263 ft | 230 kts | 283° |
| 2026-04-22 20:32 | 67.27138 | 154.26940 | 11031 ft | 230 kts | 283° |
| 2026-04-22 20:32 | 67.27398 | 154.21534 | 10727 ft | 228 kts | 283° |
| 2026-04-22 20:33 | 67.27598 | 154.17468 | 10498 ft | 228 kts | 283° |
| 2026-04-22 20:33 | 67.27734 | 154.14726 | 10343 ft | 227 kts | 283° |
| 2026-04-22 20:33 | 67.27940 | 154.10671 | 10101 ft | 227 kts | 283° |
| 2026-04-22 20:33 | 67.28146 | 154.06644 | 9874 ft | 225 kts | 283° |
| 2026-04-22 20:34 | 67.28353 | 154.02639 | 9655 ft | 224 kts | 283° |
| 2026-04-22 20:34 | 67.28560 | 153.98691 | 9436 ft | 224 kts | 283° |
| 2026-04-22 20:34 | 67.28853 | 153.94753 | 9222 ft | 221 kts | 291° |
| 2026-04-22 20:34 | 67.29346 | 153.91011 | 9009 ft | 218 kts | 297° |
| 2026-04-22 20:35 | 67.30014 | 153.87514 | 8795 ft | 215 kts | 304° |
| 2026-04-22 20:35 | 67.30754 | 153.84149 | 8580 ft | 215 kts | 305° |
| 2026-04-22 20:35 | 67.31507 | 153.80798 | 8365 ft | 214 kts | 306° |
| 2026-04-22 20:35 | 67.32256 | 153.77509 | 8109 ft | 215 kts | 306° |
| 2026-04-22 20:36 | 67.33010 | 153.74192 | 7829 ft | 210 kts | 306° |
| 2026-04-22 20:36 | 67.33736 | 153.70956 | 7533 ft | 205 kts | 305° |
| 2026-04-22 20:36 | 67.34454 | 153.67804 | 7192 ft | 202 kts | 307° |
| 2026-04-22 20:36 | 67.35259 | 153.64795 | 6841 ft | 201 kts | 311° |
| 2026-04-22 20:37 | 67.36027 | 153.61801 | 6487 ft | 200 kts | 307° |
| 2026-04-22 20:37 | 67.36794 | 153.58765 | 5888 ft | 201 kts | 309° |
| 2026-04-22 20:37 | 67.37614 | 153.55934 | 5610 ft | 188 kts | 314° |
| 2026-04-22 20:37 | 67.38571 | 153.54169 | 5578 ft | 156 kts | 10° |
| 2026-04-22 20:38 | 67.39463 | 153.55479 | 5404 ft | 148 kts | 44° |
| 2026-04-22 20:38 | 67.40228 | 153.57508 | 4777 ft | 161 kts | 50° |
| 2026-04-22 20:38 | 67.40980 | 153.59744 | 4219 ft | 166 kts | 51° |
| 2026-04-22 20:38 | 67.41757 | 153.61995 | 3450 ft | 169 kts | 52° |
| 2026-04-22 20:39 | 67.42664 | 153.64221 | 2500 ft | 178 kts | 48° |
| 2026-04-22 20:39 | 67.43533 | 153.66401 | 1821 ft | 170 kts | 48° |
| 2026-04-22 20:39 | 67.44340 | 153.68539 | 1171 ft | 159 kts | 50° |
| 2026-04-22 20:39 | 67.44721 | 153.70807 | 1376 ft | 120 kts | 108° |
| 2026-04-22 20:40 | 67.43994 | 153.71761 | 1325 ft | 134 kts | 201° |
| 2026-04-22 20:40 | 67.43452 | 153.70125 | 1195 ft | 108 kts | 287° |
| 2026-04-22 20:40 | 67.44025 | 153.69538 | 766 ft | 100 kts | 359° |
| 2026-04-22 20:40 | 67.44654 | 153.69797 | 406 ft | 85 kts | 26° |
| 2026-04-22 20:41 | 67.45125 | 153.70370 | 182 ft | 65 kts | 39° |
| 2026-04-22 20:41 | 67.45515 | 153.70294 | 208 ft | 56 kts | 11° |
| 2026-04-22 20:41 | 67.45863 | 153.70767 | 286 ft | 66 kts | 349° |
| 2026-04-22 20:41 | 67.46338 | 153.71161 | 327 ft | 86 kts | 31° |
| 2026-04-22 20:42 | 67.46888 | 153.72037 | 329 ft | 97 kts | 38° |
| 2026-04-22 20:42 | 67.47490 | 153.73063 | 264 ft | 107 kts | 30° |
| 2026-04-22 20:42 | 67.48146 | 153.73807 | 279 ft | 98 kts | 23° |
| 2026-04-22 20:42 | 67.48725 | 153.74649 | 256 ft | 89 kts | 34° |
| 2026-04-22 20:43 | 67.49204 | 153.75276 | 442 ft | 67 kts | 25° |
| 2026-04-22 20:43 | 67.49548 | 153.75097 | 518 ft | 70 kts | 261° |
| 2026-04-22 20:43 | 67.50414 | 153.75376 | 574 ft | 203 kts | 14° |
| 2026-04-22 20:43 | 67.51704 | 153.75088 | 517 ft | 161 kts | 348° |
| 2026-04-22 20:44 | 67.52589 | 153.75017 | 688 ft | 122 kts | 28° |
| 2026-04-22 20:44 | 67.53275 | 153.75986 | 394 ft | 97 kts | 34° |
| 2026-04-22 20:44 | 67.53771 | 153.76924 | 69 ft | 79 kts | 35° |
| 2026-04-22 20:44 | 67.54032 | 153.77362 | 61 ft | 25 kts | 27° |
| 2026-04-22 20:45 | 67.54043 | 153.77377 | 57 ft | 0 kts | 26° |